Time;durP1;ratioP1;P1;durP2;ratioP2;P2;SDS_P1;SDS_P2;PMS_P1;PMS_P2;Temp;Humidity;BMP_temperature;BMP_pressure;BME280_temperature;BME280_humidity;BME280_pressure;Samples;Min_cycle;Max_cycle;Signal;HPM_P1;HPM_P2
2024/02/11 00:01:49;;;;;;;31.48;19.38;;;;;;;10.35;82.44;97071.66;4129801;28;20113;-76
2024/02/11 00:03:49;;;;;;;22.98;18.70;;;;;;;10.44;82.04;97069.56;4130661;28;20165;-76
2024/02/11 00:05:49;;;;;;;23.20;17.00;;;;;;;10.59;81.65;97071.94;4129803;28;20085;-75
2024/02/11 00:07:50;;;;;;;24.50;18.80;;;;;;;10.61;81.36;97069.84;4130806;28;20030;-75
2024/02/11 00:09:51;;;;;;;24.63;19.30;;;;;;;10.67;81.24;97073.53;4130416;28;20080;-74
2024/02/11 00:11:51;;;;;;;23.97;18.13;;;;;;;10.73;81.01;97060.09;4129554;28;20089;-76
2024/02/11 00:13:51;;;;;;;22.43;19.17;;;;;;;10.76;81.15;97067.69;4131680;28;20345;-74
2024/02/11 00:15:52;;;;;;;21.60;17.77;;;;;;;10.80;80.84;97075.25;4137352;28;20449;-75
2024/02/11 00:17:52;;;;;;;24.48;18.85;;;;;;;10.83;80.77;97069.47;4142309;28;20282;-75
2024/02/11 00:19:53;;;;;;;24.00;17.30;;;;;;;10.82;81.12;97075.84;4138255;28;20034;-75
2024/02/11 00:21:53;;;;;;;20.20;15.73;;;;;;;10.90;80.86;97086.28;4143617;28;20265;-74
2024/02/11 00:23:53;;;;;;;21.00;16.60;;;;;;;10.95;80.55;97077.59;4145289;28;20261;-75
2024/02/11 00:25:54;;;;;;;18.75;14.77;;;;;;;11.03;80.26;97083.50;4144970;28;20090;-76
2024/02/11 00:27:54;;;;;;;20.80;16.55;;;;;;;10.98;80.43;97083.31;4145156;28;20042;-76
2024/02/11 00:29:57;;;;;;;23.38;18.65;;;;;;;10.87;80.97;97078.69;4142918;28;20090;-76
2024/02/11 00:31:58;;;;;;;20.75;17.00;;;;;;;10.97;80.62;97094.22;4131256;28;20038;-75
2024/02/11 00:34:01;;;;;;;;;;;;;;;10.99;80.32;97098.31;4131384;28;20110;-76
2024/02/11 00:36:01;;;;;;;20.92;16.48;;;;;;;11.01;80.59;97096.25;4130795;28;20062;-75
2024/02/11 00:38:01;;;;;;;22.33;16.50;;;;;;;11.06;80.16;97099.06;4129136;28;20108;-75
2024/02/11 00:40:05;;;;;;;20.55;16.58;;;;;;;11.11;80.29;97095.72;4145716;28;20037;-75
2024/02/11 00:42:06;;;;;;;19.42;14.38;;;;;;;11.22;79.94;97091.53;4130308;28;20038;-75
2024/02/11 00:44:08;;;;;;;19.33;14.30;;;;;;;11.18;80.04;97091.16;4130718;28;20502;-75
2024/02/11 00:46:09;;;;;;;16.25;13.05;;;;;;;11.27;79.92;97094.34;4129324;28;20029;-75
2024/02/11 00:48:10;;;;;;;15.65;12.95;;;;;;;11.41;79.46;97091.53;4128797;28;20026;-76
2024/02/11 00:50:13;;;;;;;15.40;11.20;;;;;;;11.45;79.17;97093.56;4129213;28;20217;-76
2024/02/11 00:52:15;;;;;;;15.70;12.50;;;;;;;11.57;78.58;97098.16;4129369;28;20030;-76
2024/02/11 00:54:15;;;;;;;19.17;13.02;;;;;;;11.50;79.05;97103.59;4130327;28;20065;-74
2024/02/11 00:56:17;;;;;;;14.70;11.57;;;;;;;11.58;78.52;97097.94;4130764;28;20369;-74
2024/02/11 00:58:19;;;;;;;16.42;13.18;;;;;;;11.68;78.00;97095.56;4129270;28;20026;-75
2024/02/11 01:00:20;;;;;;;21.75;15.85;;;;;;;11.33;79.94;97095.31;4130532;28;20532;-75
2024/02/11 01:02:20;;;;;;;19.52;14.48;;;;;;;11.52;79.15;97093.50;4130634;28;20042;-75
2024/02/11 01:04:21;;;;;;;19.73;15.57;;;;;;;11.47;79.33;97098.66;4130271;28;20165;-75
2024/02/11 01:06:26;;;;;;;19.75;15.75;;;;;;;11.33;79.98;97108.69;4130647;28;20029;-75
2024/02/11 01:08:26;;;;;;;22.75;17.17;;;;;;;11.38;79.67;97109.66;4130090;28;20454;-75
2024/02/11 01:10:31;;;;;;;21.27;16.65;;;;;;;11.35;79.68;97107.44;4131001;28;20022;-75
2024/02/11 01:12:31;;;;;;;23.23;16.80;;;;;;;11.35;79.69;97112.78;4130486;28;20437;-75
2024/02/11 01:14:31;;;;;;;21.27;15.50;;;;;;;11.45;79.23;97116.78;4129104;28;20030;-75
2024/02/11 01:16:32;;;;;;;20.05;14.35;;;;;;;11.48;79.07;97125.19;4130668;28;20438;-74
2024/02/11 01:18:33;;;;;;;18.95;14.00;;;;;;;11.57;78.66;97120.38;4130408;28;20018;-76
2024/02/11 01:20:33;;;;;;;20.08;15.18;;;;;;;11.47;79.25;97126.25;4131185;28;20086;-76
2024/02/11 01:22:34;;;;;;;17.13;13.95;;;;;;;11.56;78.88;97118.75;4130746;28;20050;-76
2024/02/11 01:24:34;;;;;;;19.85;15.00;;;;;;;11.55;78.72;97127.81;4141170;28;20026;-75
2024/02/11 01:26:36;;;;;;;17.25;13.77;;;;;;;11.64;78.62;97125.66;4136074;28;20421;-75
2024/02/11 01:28:39;;;;;;;19.42;14.13;;;;;;;11.68;78.68;97126.84;4129847;28;20120;-76
2024/02/11 01:30:39;;;;;;;16.23;12.80;;;;;;;11.75;78.25;97124.91;4129568;28;20076;-76
2024/02/11 01:32:40;;;;;;;15.63;13.32;;;;;;;11.70;78.39;97130.94;4130208;28;20117;-75
2024/02/11 01:34:40;;;;;;;15.00;11.73;;;;;;;11.66;78.81;97131.63;4132581;28;20022;-74
2024/02/11 01:36:41;;;;;;;17.77;14.50;;;;;;;11.55;79.12;97135.81;4131543;28;20121;-75
2024/02/11 01:38:41;;;;;;;21.53;15.20;;;;;;;11.47;79.69;97134.28;4131276;28;20492;-76
2024/02/11 01:40:42;;;;;;;23.27;17.58;;;;;;;11.27;80.61;97137.13;4133049;28;20634;-75
2024/02/11 01:42:45;;;;;;;20.00;14.80;;;;;;;11.57;79.48;97141.78;4132594;28;20029;-76
2024/02/11 01:44:46;;;;;;;17.58;13.73;;;;;;;11.58;79.08;97134.56;4132753;28;20172;-76
2024/02/11 01:46:47;;;;;;;17.83;14.18;;;;;;;11.63;79.04;97135.53;4132920;28;20069;-75
2024/02/11 01:48:47;;;;;;;;;;;;;;;11.60;79.61;97133.31;4132873;28;20517;-77
2024/02/11 01:50:52;;;;;;;19.17;14.53;;;;;;;11.62;79.09;97131.22;4132998;28;19909;-75
2024/02/11 01:52:56;;;;;;;24.35;16.15;;;;;;;11.63;79.28;97132.84;4132939;28;20459;-75
2024/02/11 01:54:56;;;;;;;20.08;16.17;;;;;;;11.59;79.50;97139.72;4132388;28;20445;-75
2024/02/11 01:56:57;;;;;;;19.30;14.65;;;;;;;11.61;79.32;97148.34;4132267;28;20113;-75
2024/02/11 01:58:58;;;;;;;22.90;15.40;;;;;;;11.59;79.56;97139.72;4132170;28;20030;-75
2024/02/11 02:00:59;;;;;;;18.77;15.13;;;;;;;11.66;79.24;97145.00;4132441;28;20041;-75
2024/02/11 02:03:01;;;;;;;20.00;15.82;;;;;;;11.68;79.04;97143.72;4132157;28;20054;-75
2024/02/11 02:05:01;;;;;;;19.67;15.82;;;;;;;11.69;79.44;97145.38;4132239;28;20034;-74
2024/02/11 02:07:02;;;;;;;18.40;14.98;;;;;;;11.75;79.05;97142.81;4130915;28;20026;-76
2024/02/11 02:09:03;;;;;;;19.38;15.38;;;;;;;11.78;78.89;97148.53;4131817;28;20031;-75
2024/02/11 02:11:04;;;;;;;17.73;13.35;;;;;;;11.90;78.13;97137.09;4131193;28;20027;-75
2024/02/11 02:13:04;;;;;;;17.30;13.07;;;;;;;11.98;77.85;97137.66;4132149;28;20027;-74
2024/02/11 02:15:08;;;;;;;16.40;12.30;;;;;;;12.05;77.63;97132.19;4132669;28;20041;-75
2024/02/11 02:17:08;;;;;;;19.50;14.50;;;;;;;12.02;77.84;97130.78;4131287;28;20031;-75
2024/02/11 02:19:09;;;;;;;15.95;12.75;;;;;;;12.07;77.85;97134.66;4131992;28;20037;-75
2024/02/11 02:21:10;;;;;;;14.77;11.65;;;;;;;12.14;77.72;97146.91;4132553;28;20080;-77
2024/02/11 02:23:10;;;;;;;19.35;14.60;;;;;;;12.08;77.54;97138.97;4131305;28;20030;-76
2024/02/11 02:25:11;;;;;;;14.70;11.50;;;;;;;12.13;77.65;97145.28;4132203;28;20030;-75
2024/02/11 02:27:11;;;;;;;15.80;11.82;;;;;;;12.20;77.27;97142.50;4132176;28;20390;-75
2024/02/11 02:29:12;;;;;;;16.65;13.05;;;;;;;12.19;77.43;97145.41;4131540;28;20060;-75
2024/02/11 02:31:12;;;;;;;20.30;13.23;;;;;;;12.22;77.12;97145.78;4146931;28;20359;-74
2024/02/11 02:33:13;;;;;;;18.23;14.27;;;;;;;12.17;77.40;97145.66;4132424;28;20034;-75
2024/02/11 02:35:21;;;;;;;17.70;13.35;;;;;;;12.20;77.32;97147.06;4130767;28;20022;-75
2024/02/11 02:37:21;;;;;;;14.77;12.68;;;;;;;12.29;76.99;97159.09;4132326;28;20030;-76
2024/02/11 02:39:23;;;;;;;16.73;12.50;;;;;;;12.32;77.04;97161.31;4134191;28;20092;-75
2024/02/11 02:41:24;;;;;;;16.83;13.25;;;;;;;12.32;77.07;97161.31;4158007;28;20025;-75
2024/02/11 02:43:25;;;;;;;13.88;10.93;;;;;;;12.29;77.21;97170.59;4155880;28;20030;-75
2024/02/11 02:45:25;;;;;;;15.30;12.05;;;;;;;12.25;77.43;97166.75;4139910;28;20121;-75
2024/02/11 02:47:26;;;;;;;18.17;13.10;;;;;;;12.16;77.89;97176.94;4132710;28;20429;-75
2024/02/11 02:49:26;;;;;;;17.67;12.90;;;;;;;12.04;78.39;97177.94;4151640;28;20136;-75
2024/02/11 02:51:27;;;;;;;21.92;15.30;;;;;;;11.78;79.17;97185.22;4155268;28;20268;-75
2024/02/11 02:53:27;;;;;;;15.98;11.13;;;;;;;11.20;81.76;97198.69;4162848;28;20026;-74
2024/02/11 02:55:28;;;;;;;12.60;8.68;;;;;;;11.27;80.84;97198.63;4131742;28;20033;-75
2024/02/11 02:57:28;;;;;;;8.55;5.38;;;;;;;11.08;80.47;97209.28;4137656;28;20034;-74
2024/02/11 02:59:28;;;;;;;5.70;3.10;;;;;;;10.74;80.00;97203.34;4131680;28;20077;-73
2024/02/11 03:01:29;;;;;;;3.95;1.85;;;;;;;10.95;78.37;97208.56;4131795;28;20466;-73
2024/02/11 03:03:32;;;;;;;3.28;1.70;;;;;;;11.16;76.97;97210.03;4131735;28;20065;-73
2024/02/11 03:05:37;;;;;;;3.22;1.52;;;;;;;10.96;77.29;97220.88;4131636;28;20072;-72
2024/02/11 03:07:40;;;;;;;2.30;1.00;;;;;;;10.75;77.58;97213.00;4130495;28;20110;-73
2024/02/11 03:09:40;;;;;;;3.58;0.80;;;;;;;10.65;77.17;97218.00;4131104;28;20022;-73
2024/02/11 03:11:41;;;;;;;1.95;0.82;;;;;;;10.74;76.20;97222.06;4131836;28;20081;-74
2024/02/11 03:13:44;;;;;;;2.78;0.80;;;;;;;10.48;76.43;97224.88;4131493;28;20427;-73
2024/02/11 03:15:44;;;;;;;1.35;0.60;;;;;;;10.54;76.16;97230.16;4131406;28;20106;-73
2024/02/11 03:17:44;;;;;;;1.55;0.47;;;;;;;10.30;75.97;97242.38;4131737;28;20042;-74
2024/02/11 03:19:45;;;;;;;1.07;0.40;;;;;;;9.88;76.18;97248.03;4131163;28;20033;-73
2024/02/11 03:21:48;;;;;;;1.65;0.43;;;;;;;9.94;75.44;97249.06;4130177;28;20285;-73
2024/02/11 03:23:49;;;;;;;1.73;0.60;;;;;;;9.66;75.86;97253.63;4131349;28;20034;-73
2024/02/11 03:25:50;;;;;;;1.52;0.60;;;;;;;9.76;75.87;97255.06;4131608;28;20099;-73
2024/02/11 03:27:54;;;;;;;1.35;0.47;;;;;;;9.74;75.63;97262.44;4131490;28;20050;-73
2024/02/11 03:29:54;;;;;;;0.80;0.40;;;;;;;9.77;75.43;97265.50;4130817;28;20534;-73
2024/02/11 03:31:55;;;;;;;2.53;0.70;;;;;;;9.75;75.26;97258.75;4131217;28;20035;-73
2024/02/11 03:33:55;;;;;;;1.42;0.60;;;;;;;9.53;75.76;97269.63;4130957;28;20038;-73
2024/02/11 03:35:56;;;;;;;1.90;0.70;;;;;;;9.50;75.98;97268.22;4131050;28;20124;-74
2024/02/11 03:37:57;;;;;;;1.98;0.60;;;;;;;9.56;75.87;97277.25;4131240;28;20265;-74
2024/02/11 03:39:57;;;;;;;2.13;0.75;;;;;;;9.33;76.46;97275.78;4130900;28;20113;-74
2024/02/11 03:41:58;;;;;;;1.73;0.63;;;;;;;9.38;76.36;97277.84;4131431;28;20085;-73
2024/02/11 03:44:00;;;;;;;2.40;0.90;;;;;;;9.29;76.47;97281.75;4131350;28;20121;-73
2024/02/11 03:46:02;;;;;;;2.05;0.80;;;;;;;9.48;76.09;97283.59;4131242;28;20261;-73
2024/02/11 03:48:03;;;;;;;1.75;0.65;;;;;;;9.42;76.36;97276.44;4131628;28;20037;-74
2024/02/11 03:50:04;;;;;;;2.58;0.98;;;;;;;8.98;78.08;97288.44;4131947;28;20018;-73
2024/02/11 03:52:05;;;;;;;;;;;;;;;9.09;77.99;97292.38;4131590;28;20026;-73
2024/02/11 03:54:05;;;;;;;4.27;1.27;;;;;;;9.21;77.54;97301.41;4130785;28;19920;-73
2024/02/11 03:56:06;;;;;;;3.03;0.80;;;;;;;9.28;77.45;97299.59;4130091;28;20431;-73
2024/02/11 03:58:07;;;;;;;2.40;1.00;;;;;;;9.55;76.26;97302.25;4131592;28;20046;-73
2024/02/11 04:00:22;;;;;;;;;;;;;;;9.57;76.78;97315.38;4141840;28;20030;-73
2024/02/11 04:02:23;;;;;;;2.15;0.80;;;;;;;9.15;77.79;97307.56;4136880;28;19924;-73
2024/02/11 04:04:25;;;;;;;2.58;0.90;;;;;;;9.16;77.21;97311.88;4131013;28;20023;-73
2024/02/11 04:06:27;;;;;;;2.15;0.90;;;;;;;9.29;76.90;97308.41;4130819;28;20030;-73
2024/02/11 04:08:29;;;;;;;3.45;0.93;;;;;;;9.30;76.72;97310.03;4129240;28;20577;-74
2024/02/11 04:10:36;;;;;;;2.35;1.00;;;;;;;9.14;77.12;97313.91;4131689;28;20041;-73
2024/02/11 04:12:36;;;;;;;3.08;1.50;;;;;;;9.21;76.69;97323.56;4131033;28;20022;-73
2024/02/11 04:14:37;;;;;;;3.10;1.20;;;;;;;8.98;77.02;97323.09;4130173;28;20178;-73
2024/02/11 04:16:43;;;;;;;2.38;0.93;;;;;;;8.79;77.64;97322.84;4131148;28;20065;-73
2024/02/11 04:18:50;;;;;;;3.08;1.25;;;;;;;9.04;77.08;97327.63;4130641;28;20105;-73
2024/02/11 04:20:52;;;;;;;3.55;1.27;;;;;;;8.85;77.60;97324.72;4131065;28;20578;-73
2024/02/11 04:22:58;;;;;;;4.15;1.40;;;;;;;8.80;77.54;97326.34;4130405;28;20050;-73
2024/02/11 04:24:58;;;;;;;3.30;1.40;;;;;;;9.02;76.90;97335.00;4130671;28;20483;-73
2024/02/11 04:26:59;;;;;;;3.20;1.23;;;;;;;9.06;76.47;97333.59;4131172;28;20080;-73
2024/02/11 04:28:59;;;;;;;4.77;1.90;;;;;;;8.83;77.25;97329.41;4130772;28;20030;-73
2024/02/11 04:31:01;;;;;;;3.40;1.40;;;;;;;8.80;77.53;97332.47;4130865;28;20105;-73
2024/02/11 04:33:02;;;;;;;4.35;1.40;;;;;;;9.12;76.27;97337.28;4130961;28;20052;-73
2024/02/11 04:35:05;;;;;;;3.35;1.40;;;;;;;9.26;75.55;97335.47;4130571;28;20030;-73
2024/02/11 04:37:06;;;;;;;4.65;1.98;;;;;;;9.07;76.09;97339.72;4130367;28;20453;-73
2024/02/11 04:39:08;;;;;;;4.95;2.08;;;;;;;8.90;77.00;97342.78;4130420;28;20058;-73
2024/02/11 04:41:08;;;;;;;5.03;2.35;;;;;;;8.65;77.74;97353.13;4130682;28;20053;-74
2024/02/11 04:43:09;;;;;;;3.53;1.73;;;;;;;9.02;76.30;97346.47;4129411;28;20026;-73
2024/02/11 04:45:14;;;;;;;6.03;2.55;;;;;;;8.76;77.44;97352.56;4128925;28;20868;-73
2024/02/11 04:47:15;;;;;;;7.15;2.88;;;;;;;8.50;78.18;97346.06;4131031;28;20026;-73
2024/02/11 04:49:16;;;;;;;6.60;2.60;;;;;;;8.28;79.26;97354.13;4129037;28;20081;-73
2024/02/11 04:51:17;;;;;;;7.07;3.20;;;;;;;8.49;78.65;97365.75;4129281;28;20035;-73
2024/02/11 04:53:18;;;;;;;6.00;3.00;;;;;;;8.57;78.22;97357.59;4129190;28;20049;-73
2024/02/11 04:55:38;;;;;;;4.75;2.53;;;;;;;8.77;77.36;97362.19;4130337;28;20026;-74
2024/02/11 04:57:39;;;;;;;7.25;3.40;;;;;;;8.77;77.31;97366.69;4130597;28;20391;-73
2024/02/11 04:59:39;;;;;;;6.40;3.03;;;;;;;8.81;77.31;97370.59;4128743;28;20030;-73
2024/02/11 05:01:43;;;;;;;6.03;2.70;;;;;;;8.57;78.38;97362.94;4130173;28;20297;-73
2024/02/11 05:03:46;;;;;;;4.70;2.55;;;;;;;8.82;77.12;97381.06;4130846;28;20027;-73
2024/02/11 05:05:52;;;;;;;4.55;2.38;;;;;;;8.73;77.67;97384.91;4130101;28;20018;-73
2024/02/11 05:07:53;;;;;;;5.10;2.60;;;;;;;8.52;78.48;97378.66;4132352;28;20053;-73
2024/02/11 05:09:53;;;;;;;;;;;;;;;8.54;77.90;97373.16;4133889;28;20030;-73
2024/02/11 05:11:54;;;;;;;4.67;2.70;;;;;;;8.68;77.77;97380.16;4132482;28;20385;-73
2024/02/11 05:13:54;;;;;;;4.75;2.38;;;;;;;8.88;76.83;97382.91;4133515;28;20018;-73
2024/02/11 05:15:59;;;;;;;5.60;2.25;;;;;;;8.65;77.86;97387.75;4133481;28;20030;-73
2024/02/11 05:18:00;;;;;;;5.20;2.08;;;;;;;8.84;76.79;97397.66;4133047;28;20069;-73
2024/02/11 05:20:12;;;;;;;6.50;2.42;;;;;;;8.85;76.73;97388.66;4134162;28;20022;-72
2024/02/11 05:22:13;;;;;;;5.20;1.92;;;;;;;8.86;76.56;97400.97;4134006;28;20057;-73
2024/02/11 05:24:13;;;;;;;3.80;2.10;;;;;;;8.72;77.09;97404.56;4134042;28;20022;-73
2024/02/11 05:26:17;;;;;;;3.45;1.73;;;;;;;8.63;77.52;97397.75;4132688;28;20033;-73
2024/02/11 05:28:19;;;;;;;4.82;2.45;;;;;;;8.65;77.50;97407.19;4134034;28;20046;-73
2024/02/11 05:30:20;;;;;;;3.95;2.10;;;;;;;8.80;76.83;97403.59;4133991;28;20018;-74
2024/02/11 05:32:20;;;;;;;4.28;2.10;;;;;;;8.69;77.55;97403.13;4133461;28;20459;-73
2024/02/11 05:34:21;;;;;;;3.35;1.55;;;;;;;8.71;77.37;97402.91;4133232;28;20034;-74
2024/02/11 05:36:22;;;;;;;5.65;1.95;;;;;;;8.56;77.78;97411.88;4134367;28;20089;-73
2024/02/11 05:38:24;;;;;;;4.20;1.75;;;;;;;8.61;77.63;97415.78;4134436;28;20110;-74
2024/02/11 05:40:26;;;;;;;4.40;2.00;;;;;;;8.78;77.03;97409.13;4134462;28;20036;-73
2024/02/11 05:42:26;;;;;;;4.00;1.98;;;;;;;8.70;77.00;97409.25;4135746;28;20040;-73
2024/02/11 05:44:30;;;;;;;4.13;1.77;;;;;;;8.43;78.19;97409.94;4146667;28;20030;-73
2024/02/11 05:46:30;;;;;;;4.53;1.80;;;;;;;8.65;77.21;97422.38;4143670;28;20849;-73
2024/02/11 05:48:31;;;;;;;5.40;2.00;;;;;;;8.60;77.29;97424.81;4144145;28;20087;-73
2024/02/11 05:50:32;;;;;;;3.50;1.85;;;;;;;8.71;76.70;97413.56;4144734;28;20281;-73
2024/02/11 05:52:33;;;;;;;;;;;;;;;8.74;76.69;97427.31;4147432;28;20109;-73
2024/02/11 05:54:35;;;;;;;3.42;1.40;;;;;;;8.60;77.10;97425.63;4143763;28;19910;-73
2024/02/11 05:56:35;;;;;;;3.25;1.60;;;;;;;8.55;77.53;97426.19;4143987;28;20026;-74
2024/02/11 05:58:36;;;;;;;4.13;1.77;;;;;;;8.50;77.94;97428.63;4134267;28;20018;-73
2024/02/11 06:00:36;;;;;;;4.97;1.95;;;;;;;8.41;78.12;97437.75;4133122;28;20030;-73
2024/02/11 06:02:38;;;;;;;4.65;1.85;;;;;;;8.45;78.11;97435.53;4132708;28;20051;-74
2024/02/11 06:04:38;;;;;;;3.70;1.60;;;;;;;8.46;78.31;97445.16;4132630;28;20041;-73
2024/02/11 06:06:39;;;;;;;3.60;1.43;;;;;;;8.52;77.79;97445.22;4132500;28;20109;-73
2024/02/11 06:08:40;;;;;;;3.72;1.73;;;;;;;8.52;77.99;97450.53;4131886;28;20281;-73
2024/02/11 06:10:43;;;;;;;3.08;1.40;;;;;;;8.57;77.79;97449.97;4133338;28;20036;-73
2024/02/11 06:12:45;;;;;;;4.07;1.80;;;;;;;8.58;77.77;97457.78;4133223;28;20026;-73
2024/02/11 06:14:45;;;;;;;5.10;1.65;;;;;;;8.58;77.73;97460.44;4132637;28;20030;-73
2024/02/11 06:16:45;;;;;;;3.60;1.70;;;;;;;8.61;77.70;97461.03;4132270;28;20121;-73
2024/02/11 06:18:46;;;;;;;4.30;2.00;;;;;;;8.60;77.72;97459.44;4131748;28;20463;-73
2024/02/11 06:20:47;;;;;;;4.38;1.92;;;;;;;8.68;77.49;97462.75;4132842;28;20525;-73
2024/02/11 06:22:54;;;;;;;3.27;1.57;;;;;;;8.48;78.24;97467.94;4132255;28;20026;-73
2024/02/11 06:24:56;;;;;;;4.18;1.90;;;;;;;8.53;78.39;97476.16;4132340;28;20297;-73
2024/02/11 06:26:58;;;;;;;4.25;1.80;;;;;;;8.67;77.73;97479.72;4133072;28;20030;-73
2024/02/11 06:29:01;;;;;;;4.28;1.90;;;;;;;8.50;78.23;97481.88;4132030;28;20387;-73
2024/02/11 06:31:02;;;;;;;3.85;1.50;;;;;;;8.60;78.23;97491.38;4132035;28;20031;-73
2024/02/11 06:33:02;;;;;;;4.40;2.05;;;;;;;8.55;78.10;97499.94;4132886;28;20022;-73
2024/02/11 06:35:03;;;;;;;5.15;2.17;;;;;;;8.68;77.94;97491.22;4136514;28;20105;-73
2024/02/11 06:37:04;;;;;;;;;;;;;;;8.57;77.78;97497.91;4142566;28;20026;-73
2024/02/11 06:39:10;;;;;;;4.75;2.30;;;;;;;8.53;78.17;97500.13;4132563;28;19964;-73
2024/02/11 06:41:11;;;;;;;5.43;1.92;;;;;;;8.61;77.91;97499.16;4132599;28;20064;-73
2024/02/11 06:43:12;;;;;;;;;;;;;;;8.58;77.75;97500.38;4132502;28;20037;-72
2024/02/11 06:45:12;;;;;;;4.17;2.00;;;;;;;8.56;78.01;97502.41;4131783;28;19913;-73
2024/02/11 06:47:14;;;;;;;5.25;1.95;;;;;;;8.60;77.74;97510.84;4132199;28;20121;-73
2024/02/11 06:49:15;;;;;;;5.28;1.98;;;;;;;8.64;77.70;97511.25;4130556;28;20060;-73
2024/02/11 06:51:16;;;;;;;;;;;;;;;8.60;77.64;97512.69;4131787;28;20093;-73
2024/02/11 06:53:17;;;;;;;5.07;2.67;;;;;;;8.60;77.77;97512.69;4131156;28;20353;-73
2024/02/11 06:55:19;;;;;;;5.22;2.42;;;;;;;8.65;77.73;97519.06;4131841;28;20031;-73
2024/02/11 06:57:23;;;;;;;6.47;2.42;;;;;;;8.76;77.34;97508.88;4131813;28;20022;-73
2024/02/11 06:59:23;;;;;;;4.45;2.10;;;;;;;8.57;78.07;97520.03;4131288;28;20073;-73
2024/02/11 07:01:23;;;;;;;4.68;2.60;;;;;;;8.60;77.92;97518.00;4131504;28;20054;-73
2024/02/11 07:03:25;;;;;;;5.13;2.20;;;;;;;8.65;77.56;97516.38;4131721;28;20062;-73
2024/02/11 07:05:25;;;;;;;4.75;2.50;;;;;;;8.57;78.20;97530.69;4131236;28;20261;-73
2024/02/11 07:07:26;;;;;;;4.45;2.30;;;;;;;8.70;77.69;97524.63;4131586;28;20034;-73
2024/02/11 07:09:26;;;;;;;4.80;2.35;;;;;;;8.72;77.36;97533.25;4131377;28;20034;-73
2024/02/11 07:11:28;;;;;;;6.43;2.53;;;;;;;8.70;77.45;97531.78;4132078;28;20078;-73
2024/02/11 07:13:28;;;;;;;4.20;2.10;;;;;;;8.80;77.19;97537.59;4131527;28;20036;-73
2024/02/11 07:15:29;;;;;;;4.47;2.28;;;;;;;8.78;77.02;97531.66;4131702;28;20054;-73
2024/02/11 07:17:30;;;;;;;5.00;2.17;;;;;;;8.74;77.29;97546.38;4131888;28;20034;-73
2024/02/11 07:19:31;;;;;;;;;;;;;;;8.68;77.37;97541.84;4131880;28;20082;-73
2024/02/11 07:21:35;;;;;;;4.55;2.10;;;;;;;8.73;77.45;97550.06;4130791;28;20370;-72
2024/02/11 07:23:35;;;;;;;5.10;2.47;;;;;;;8.70;77.35;97545.09;4130220;28;20114;-72
2024/02/11 07:25:37;;;;;;;5.72;2.40;;;;;;;8.72;77.47;97551.06;4131804;28;20433;-72
2024/02/11 07:27:39;;;;;;;5.43;2.45;;;;;;;8.82;77.19;97554.22;4131207;28;20529;-72
2024/02/11 07:29:41;;;;;;;6.07;2.95;;;;;;;8.80;77.27;97558.91;4131120;28;20030;-72
2024/02/11 07:31:41;;;;;;;5.45;2.40;;;;;;;8.88;76.72;97564.09;4130320;28;20029;-72
2024/02/11 07:33:43;;;;;;;7.63;3.10;;;;;;;8.91;76.71;97557.56;4131101;28;20430;-72
2024/02/11 07:35:43;;;;;;;5.05;2.45;;;;;;;8.95;76.75;97568.66;4129391;28;20033;-72
2024/02/11 07:37:44;;;;;;;5.70;2.67;;;;;;;8.86;76.94;97563.47;4131332;28;20105;-72
2024/02/11 07:39:44;;;;;;;6.75;3.42;;;;;;;8.83;77.20;97563.84;4131220;28;20035;-74
2024/02/11 07:41:45;;;;;;;5.30;2.60;;;;;;;8.78;77.38;97576.94;4131484;28;20030;-73
2024/02/11 07:43:53;;;;;;;6.47;2.65;;;;;;;8.78;77.36;97579.63;4130020;28;20026;-73
2024/02/11 07:45:57;;;;;;;5.38;2.63;;;;;;;8.81;77.21;97575.72;4130965;28;20506;-73
2024/02/11 07:47:58;;;;;;;5.30;2.75;;;;;;;8.78;77.32;97582.28;4131419;28;20517;-73
2024/02/11 07:50:00;;;;;;;6.40;2.58;;;;;;;8.75;77.37;97585.31;4130355;28;20036;-73
2024/02/11 07:52:01;;;;;;;8.52;2.60;;;;;;;8.86;76.94;97582.13;4131146;28;20491;-73
2024/02/11 07:54:02;;;;;;;5.53;2.72;;;;;;;8.77;77.29;97588.63;4130053;28;20129;-73
2024/02/11 07:56:02;;;;;;;;;;;;;;;8.82;77.14;97586.19;4130871;28;20030;-73
2024/02/11 07:58:03;;;;;;;6.13;3.03;;;;;;;8.77;77.27;97587.78;4129826;28;20069;-73
2024/02/11 08:00:07;;;;;;;4.50;2.33;;;;;;;8.86;77.06;97586.63;4131190;28;20434;-73
2024/02/11 08:02:08;;;;;;;4.70;2.50;;;;;;;8.90;76.85;97593.22;4130907;28;20043;-73
2024/02/11 08:04:10;;;;;;;5.15;2.50;;;;;;;8.90;76.93;97599.34;4130924;28;20037;-73
2024/02/11 08:06:10;;;;;;;5.00;2.30;;;;;;;8.87;77.02;97594.44;4135052;28;20040;-73
2024/02/11 08:08:11;;;;;;;5.00;2.05;;;;;;;8.85;77.11;97593.81;4136305;28;20390;-73
2024/02/11 08:10:11;;;;;;;5.32;2.63;;;;;;;8.85;77.14;97591.13;4138436;28;20085;-73
2024/02/11 08:12:12;;;;;;;5.00;2.60;;;;;;;8.91;76.87;97589.53;4133661;28;20033;-74
2024/02/11 08:14:12;;;;;;;6.00;2.92;;;;;;;9.03;76.44;97593.28;4138944;28;20058;-73
2024/02/11 08:16:13;;;;;;;5.13;2.67;;;;;;;8.99;76.46;97599.22;4135168;28;20124;-73
2024/02/11 08:18:13;;;;;;;4.03;2.20;;;;;;;8.86;77.09;97608.78;4145909;28;20022;-73
2024/02/11 08:20:18;;;;;;;6.10;3.05;;;;;;;8.84;77.30;97605.47;4135829;28;20038;-73
2024/02/11 08:22:19;;;;;;;5.47;3.05;;;;;;;8.87;77.30;97604.25;4148230;28;20081;-73
2024/02/11 08:24:20;;;;;;;5.27;2.30;;;;;;;8.92;76.97;97599.19;4134985;28;20018;-73
2024/02/11 08:26:22;;;;;;;5.95;2.88;;;;;;;8.94;77.09;97599.78;4134597;28;20257;-73
2024/02/11 08:28:22;;;;;;;7.40;3.10;;;;;;;9.03;76.77;97598.63;4134126;28;20563;-72
2024/02/11 08:30:24;;;;;;;5.55;2.83;;;;;;;9.21;76.13;97600.81;4134418;28;20022;-73
2024/02/11 08:32:25;;;;;;;7.75;2.53;;;;;;;9.24;75.93;97609.44;4144920;28;20025;-72
2024/02/11 08:34:26;;;;;;;4.80;2.47;;;;;;;9.24;76.15;97610.25;4141100;28;20053;-73
2024/02/11 08:36:27;;;;;;;5.80;2.55;;;;;;;9.30;75.90;97613.97;4147691;28;20021;-73
2024/02/11 08:38:28;;;;;;;5.22;2.80;;;;;;;9.38;75.63;97616.47;4134227;28;20429;-73
2024/02/11 08:40:28;;;;;;;5.90;2.95;;;;;;;9.46;75.30;97623.50;4130637;28;20565;-73
2024/02/11 08:42:29;;;;;;;5.43;2.87;;;;;;;9.46;75.30;97621.66;4156935;28;20021;-73
2024/02/11 08:44:29;;;;;;;6.03;2.53;;;;;;;9.61;74.67;97620.72;4156953;28;20018;-73
2024/02/11 08:46:30;;;;;;;5.38;2.80;;;;;;;9.52;75.01;97622.69;4149533;28;20122;-73
2024/02/11 08:48:32;;;;;;;6.35;2.80;;;;;;;9.57;75.00;97622.09;4149224;28;20026;-73
2024/02/11 08:50:34;;;;;;;4.53;2.30;;;;;;;9.73;74.38;97624.44;4146290;28;20029;-73
2024/02/11 08:52:35;;;;;;;4.55;2.20;;;;;;;9.47;75.03;97631.28;4152327;28;20520;-72
2024/02/11 08:54:36;;;;;;;4.70;1.80;;;;;;;9.69;74.23;97639.22;4151753;28;20026;-73
2024/02/11 08:56:39;;;;;;;3.88;1.80;;;;;;;9.73;73.95;97627.09;4152061;28;20050;-73
2024/02/11 08:58:40;;;;;;;3.58;1.70;;;;;;;9.69;74.11;97625.88;4149480;28;20465;-72
2024/02/11 09:00:41;;;;;;;4.37;1.90;;;;;;;9.69;74.24;97625.88;4142003;28;20113;-73
2024/02/11 09:02:42;;;;;;;5.18;2.47;;;;;;;9.72;73.86;97622.81;4150722;28;20277;-72
2024/02/11 09:04:43;;;;;;;4.38;2.10;;;;;;;9.71;73.86;97637.19;4133552;28;20053;-73
2024/02/11 09:06:46;;;;;;;4.60;2.10;;;;;;;9.62;74.35;97633.84;4142095;28;20084;-73
2024/02/11 09:08:47;;;;;;;4.45;2.05;;;;;;;9.57;74.53;97646.13;4154728;28;20056;-73
2024/02/11 09:10:47;;;;;;;4.35;1.77;;;;;;;9.59;74.56;97639.56;4133829;28;20030;-73
2024/02/11 09:12:48;;;;;;;4.05;1.88;;;;;;;9.67;74.16;97643.91;4139483;28;20030;-72
2024/02/11 09:14:48;;;;;;;4.93;2.00;;;;;;;9.65;74.00;97640.63;4139461;28;20018;-73
2024/02/11 09:16:49;;;;;;;4.65;1.73;;;;;;;9.72;73.85;97643.31;4158234;28;20034;-72
2024/02/11 09:18:49;;;;;;;4.40;1.90;;;;;;;9.74;73.76;97635.94;4150580;28;20025;-72
2024/02/11 09:20:50;;;;;;;3.77;1.50;;;;;;;9.80;73.72;97644.00;4133540;28;20112;-73
2024/02/11 09:22:51;;;;;;;3.42;1.60;;;;;;;9.89;73.29;97643.81;4134484;28;20265;-72
2024/02/11 09:24:52;;;;;;;3.47;1.45;;;;;;;9.90;73.08;97651.63;4134331;28;20033;-72
2024/02/11 09:26:52;;;;;;;4.20;2.22;;;;;;;10.18;72.08;97652.53;4133691;28;20027;-73
2024/02/11 09:28:54;;;;;;;4.38;1.95;;;;;;;10.19;72.15;97654.19;4134297;28;20030;-73
2024/02/11 09:30:55;;;;;;;4.53;2.38;;;;;;;10.30;71.64;97650.91;4134053;28;20022;-73
2024/02/11 09:32:55;;;;;;;4.30;2.17;;;;;;;10.15;71.93;97654.59;4132639;28;20593;-75
2024/02/11 09:34:56;;;;;;;5.73;2.57;;;;;;;10.27;71.48;97651.34;4133075;28;20034;-73